sensor_id;sensor_type;location;lat;lon;timestamp;P1;durP1;ratioP1;P2;durP2;ratioP2
53309;SDS011;39197;53.200;5.792;2023-06-26T00:00:48;9.40;;;8.50;;
53309;SDS011;39197;53.200;5.792;2023-06-26T00:03:14;9.38;;;8.48;;
53309;SDS011;39197;53.200;5.792;2023-06-26T00:05:40;9.40;;;8.40;;
53309;SDS011;39197;53.200;5.792;2023-06-26T00:08:07;8.57;;;7.68;;
53309;SDS011;39197;53.200;5.792;2023-06-26T00:10:34;9.43;;;8.52;;
53309;SDS011;39197;53.200;5.792;2023-06-26T00:12:59;9.82;;;8.82;;
53309;SDS011;39197;53.200;5.792;2023-06-26T00:15:26;9.35;;;8.45;;
53309;SDS011;39197;53.200;5.792;2023-06-26T00:17:56;10.15;;;8.68;;
53309;SDS011;39197;53.200;5.792;2023-06-26T00:20:22;10.40;;;9.10;;
53309;SDS011;39197;53.200;5.792;2023-06-26T00:22:48;9.77;;;8.93;;
53309;SDS011;39197;53.200;5.792;2023-06-26T00:25:15;10.35;;;9.35;;
53309;SDS011;39197;53.200;5.792;2023-06-26T00:27:41;9.98;;;9.07;;
53309;SDS011;39197;53.200;5.792;2023-06-26T00:30:07;9.98;;;9.05;;
53309;SDS011;39197;53.200;5.792;2023-06-26T00:32:34;10.05;;;8.93;;
53309;SDS011;39197;53.200;5.792;2023-06-26T00:34:59;10.40;;;9.23;;
53309;SDS011;39197;53.200;5.792;2023-06-26T00:37:25;10.27;;;9.25;;
53309;SDS011;39197;53.200;5.792;2023-06-26T00:39:51;10.00;;;9.02;;
53309;SDS011;39197;53.200;5.792;2023-06-26T00:42:16;11.00;;;9.63;;
53309;SDS011;39197;53.200;5.792;2023-06-26T00:44:42;10.15;;;9.15;;
53309;SDS011;39197;53.200;5.792;2023-06-26T00:47:08;9.75;;;8.68;;
53309;SDS011;39197;53.200;5.792;2023-06-26T00:49:37;10.13;;;9.13;;
53309;SDS011;39197;53.200;5.792;2023-06-26T00:52:03;10.88;;;9.10;;
53309;SDS011;39197;53.200;5.792;2023-06-26T00:54:29;10.95;;;9.20;;
53309;SDS011;39197;53.200;5.792;2023-06-26T00:56:55;10.45;;;9.45;;
53309;SDS011;39197;53.200;5.792;2023-06-26T00:59:21;11.20;;;9.82;;
53309;SDS011;39197;53.200;5.792;2023-06-26T01:01:46;10.35;;;9.35;;
53309;SDS011;39197;53.200;5.792;2023-06-26T01:04:13;10.05;;;9.13;;
53309;SDS011;39197;53.200;5.792;2023-06-26T01:06:43;11.30;;;10.13;;
53309;SDS011;39197;53.200;5.792;2023-06-26T01:09:17;9.88;;;8.88;;
53309;SDS011;39197;53.200;5.792;2023-06-26T01:11:44;10.75;;;9.63;;
53309;SDS011;39197;53.200;5.792;2023-06-26T01:14:10;9.57;;;8.57;;
53309;SDS011;39197;53.200;5.792;2023-06-26T01:16:36;9.75;;;8.75;;
53309;SDS011;39197;53.200;5.792;2023-06-26T01:19:04;10.85;;;9.75;;
53309;SDS011;39197;53.200;5.792;2023-06-26T01:21:37;10.60;;;9.60;;
53309;SDS011;39197;53.200;5.792;2023-06-26T01:24:09;10.52;;;9.52;;
53309;SDS011;39197;53.200;5.792;2023-06-26T01:26:45;11.68;;;9.32;;
53309;SDS011;39197;53.200;5.792;2023-06-26T01:29:14;9.88;;;8.63;;
53309;SDS011;39197;53.200;5.792;2023-06-26T01:31:41;10.55;;;9.45;;
53309;SDS011;39197;53.200;5.792;2023-06-26T01:34:09;10.65;;;9.75;;
53309;SDS011;39197;53.200;5.792;2023-06-26T01:36:35;10.57;;;9.57;;
53309;SDS011;39197;53.200;5.792;2023-06-26T01:39:02;11.95;;;9.27;;
53309;SDS011;39197;53.200;5.792;2023-06-26T01:41:27;10.80;;;9.57;;
53309;SDS011;39197;53.200;5.792;2023-06-26T01:49:03;12.85;;;11.52;;
53309;SDS011;39197;53.200;5.792;2023-06-26T01:51:55;11.77;;;9.90;;
53309;SDS011;39197;53.200;5.792;2023-06-26T01:54:33;11.50;;;10.50;;
53309;SDS011;39197;53.200;5.792;2023-06-26T01:57:06;12.48;;;11.27;;
53309;SDS011;39197;53.200;5.792;2023-06-26T01:59:33;11.50;;;10.35;;
53309;SDS011;39197;53.200;5.792;2023-06-26T02:02:02;12.30;;;10.70;;
53309;SDS011;39197;53.200;5.792;2023-06-26T02:04:32;15.23;;;10.77;;
53309;SDS011;39197;53.200;5.792;2023-06-26T02:06:57;11.82;;;10.65;;
53309;SDS011;39197;53.200;5.792;2023-06-26T02:09:23;12.38;;;11.18;;
53309;SDS011;39197;53.200;5.792;2023-06-26T02:11:48;15.07;;;11.77;;
53309;SDS011;39197;53.200;5.792;2023-06-26T02:14:14;11.93;;;10.73;;
53309;SDS011;39197;53.200;5.792;2023-06-26T02:16:40;11.70;;;10.57;;
53309;SDS011;39197;53.200;5.792;2023-06-26T02:19:05;12.32;;;11.20;;
53309;SDS011;39197;53.200;5.792;2023-06-26T02:21:31;13.27;;;11.02;;
53309;SDS011;39197;53.200;5.792;2023-06-26T02:23:56;12.52;;;11.32;;
53309;SDS011;39197;53.200;5.792;2023-06-26T02:26:22;12.48;;;11.23;;
53309;SDS011;39197;53.200;5.792;2023-06-26T02:28:47;13.02;;;11.82;;
53309;SDS011;39197;53.200;5.792;2023-06-26T02:31:13;11.38;;;10.27;;
53309;SDS011;39197;53.200;5.792;2023-06-26T02:33:39;18.58;;;11.63;;
53309;SDS011;39197;53.200;5.792;2023-06-26T02:36:06;13.23;;;11.82;;
53309;SDS011;39197;53.200;5.792;2023-06-26T02:38:31;13.02;;;11.55;;
53309;SDS011;39197;53.200;5.792;2023-06-26T02:40:57;13.90;;;11.35;;
53309;SDS011;39197;53.200;5.792;2023-06-26T02:43:23;13.00;;;10.65;;
53309;SDS011;39197;53.200;5.792;2023-06-26T02:45:48;11.88;;;10.45;;
53309;SDS011;39197;53.200;5.792;2023-06-26T02:48:14;10.93;;;8.60;;
53309;SDS011;39197;53.200;5.792;2023-06-26T02:50:39;12.90;;;8.77;;
53309;SDS011;39197;53.200;5.792;2023-06-26T02:53:05;12.57;;;8.93;;
53309;SDS011;39197;53.200;5.792;2023-06-26T02:55:30;12.20;;;8.55;;
53309;SDS011;39197;53.200;5.792;2023-06-26T02:57:57;10.30;;;8.82;;
53309;SDS011;39197;53.200;5.792;2023-06-26T03:00:22;15.30;;;9.40;;
53309;SDS011;39197;53.200;5.792;2023-06-26T03:02:48;11.40;;;8.73;;
53309;SDS011;39197;53.200;5.792;2023-06-26T03:05:13;14.65;;;9.52;;
53309;SDS011;39197;53.200;5.792;2023-06-26T03:07:39;12.10;;;9.13;;
53309;SDS011;39197;53.200;5.792;2023-06-26T03:10:05;14.98;;;10.23;;
53309;SDS011;39197;53.200;5.792;2023-06-26T03:12:31;12.95;;;10.00;;
53309;SDS011;39197;53.200;5.792;2023-06-26T03:14:56;15.05;;;10.50;;
53309;SDS011;39197;53.200;5.792;2023-06-26T03:17:22;15.35;;;10.35;;
53309;SDS011;39197;53.200;5.792;2023-06-26T03:19:48;11.02;;;9.68;;
53309;SDS011;39197;53.200;5.792;2023-06-26T03:22:13;14.50;;;10.15;;
53309;SDS011;39197;53.200;5.792;2023-06-26T03:24:39;13.98;;;9.75;;
53309;SDS011;39197;53.200;5.792;2023-06-26T03:27:05;14.85;;;9.80;;
53309;SDS011;39197;53.200;5.792;2023-06-26T03:29:30;13.40;;;10.48;;
53309;SDS011;39197;53.200;5.792;2023-06-26T03:31:56;16.48;;;11.18;;
53309;SDS011;39197;53.200;5.792;2023-06-26T03:34:21;21.85;;;10.52;;
53309;SDS011;39197;53.200;5.792;2023-06-26T03:36:47;20.27;;;11.60;;
53309;SDS011;39197;53.200;5.792;2023-06-26T03:39:13;22.38;;;11.05;;
53309;SDS011;39197;53.200;5.792;2023-06-26T03:41:38;14.40;;;10.43;;
53309;SDS011;39197;53.200;5.792;2023-06-26T03:44:04;15.13;;;9.48;;
53309;SDS011;39197;53.200;5.792;2023-06-26T03:46:30;15.02;;;9.75;;
53309;SDS011;39197;53.200;5.792;2023-06-26T03:48:55;21.27;;;10.90;;
53309;SDS011;39197;53.200;5.792;2023-06-26T03:51:21;20.33;;;10.57;;
53309;SDS011;39197;53.200;5.792;2023-06-26T03:53:46;17.67;;;11.02;;
53309;SDS011;39197;53.200;5.792;2023-06-26T03:56:12;18.02;;;10.88;;
53309;SDS011;39197;53.200;5.792;2023-06-26T03:58:39;20.75;;;11.55;;
53309;SDS011;39197;53.200;5.792;2023-06-26T04:01:04;16.17;;;10.38;;
53309;SDS011;39197;53.200;5.792;2023-06-26T04:03:30;19.73;;;11.98;;
53309;SDS011;39197;53.200;5.792;2023-06-26T04:05:56;18.52;;;11.02;;
53309;SDS011;39197;53.200;5.792;2023-06-26T04:08:23;18.63;;;10.77;;
53309;SDS011;39197;53.200;5.792;2023-06-26T04:10:51;23.13;;;12.23;;
53309;SDS011;39197;53.200;5.792;2023-06-26T04:13:17;21.02;;;9.93;;
53309;SDS011;39197;53.200;5.792;2023-06-26T04:15:42;17.17;;;10.27;;
53309;SDS011;39197;53.200;5.792;2023-06-26T04:18:08;13.05;;;8.00;;
53309;SDS011;39197;53.200;5.792;2023-06-26T04:20:38;17.08;;;9.15;;
53309;SDS011;39197;53.200;5.792;2023-06-26T04:25:31;21.15;;;9.02;;
53309;SDS011;39197;53.200;5.792;2023-06-26T04:27:57;17.02;;;7.35;;
53309;SDS011;39197;53.200;5.792;2023-06-26T04:30:22;15.88;;;7.03;;
53309;SDS011;39197;53.200;5.792;2023-06-26T04:32:48;17.27;;;6.90;;
53309;SDS011;39197;53.200;5.792;2023-06-26T04:35:13;18.48;;;6.03;;
53309;SDS011;39197;53.200;5.792;2023-06-26T04:37:39;14.73;;;5.00;;
53309;SDS011;39197;53.200;5.792;2023-06-26T04:40:05;13.70;;;4.72;;
53309;SDS011;39197;53.200;5.792;2023-06-26T04:42:32;15.10;;;4.57;;
53309;SDS011;39197;53.200;5.792;2023-06-26T04:44:57;16.33;;;4.72;;
53309;SDS011;39197;53.200;5.792;2023-06-26T04:47:23;15.32;;;4.53;;
53309;SDS011;39197;53.200;5.792;2023-06-26T04:49:48;16.00;;;4.57;;
53309;SDS011;39197;53.200;5.792;2023-06-26T04:52:14;14.40;;;4.07;;
53309;SDS011;39197;53.200;5.792;2023-06-26T04:54:40;13.43;;;3.53;;
53309;SDS011;39197;53.200;5.792;2023-06-26T04:57:05;17.67;;;4.80;;
53309;SDS011;39197;53.200;5.792;2023-06-26T04:59:31;16.98;;;3.95;;
53309;SDS011;39197;53.200;5.792;2023-06-26T05:01:57;14.35;;;3.65;;
53309;SDS011;39197;53.200;5.792;2023-06-26T05:04:22;18.00;;;4.30;;
53309;SDS011;39197;53.200;5.792;2023-06-26T05:06:48;15.93;;;3.95;;
53309;SDS011;39197;53.200;5.792;2023-06-26T05:09:13;18.30;;;3.90;;
53309;SDS011;39197;53.200;5.792;2023-06-26T05:11:39;12.50;;;3.45;;
53309;SDS011;39197;53.200;5.792;2023-06-26T05:14:05;14.15;;;3.95;;
53309;SDS011;39197;53.200;5.792;2023-06-26T05:16:32;16.88;;;4.10;;
53309;SDS011;39197;53.200;5.792;2023-06-26T05:18:59;22.55;;;4.65;;
53309;SDS011;39197;53.200;5.792;2023-06-26T05:21:25;12.13;;;3.60;;
53309;SDS011;39197;53.200;5.792;2023-06-26T05:23:51;19.92;;;4.45;;
53309;SDS011;39197;53.200;5.792;2023-06-26T05:26:20;19.08;;;4.75;;
53309;SDS011;39197;53.200;5.792;2023-06-26T05:28:46;17.00;;;3.97;;
53309;SDS011;39197;53.200;5.792;2023-06-26T05:31:14;14.13;;;3.80;;
53309;SDS011;39197;53.200;5.792;2023-06-26T05:33:40;24.80;;;4.65;;
53309;SDS011;39197;53.200;5.792;2023-06-26T05:36:09;12.65;;;3.65;;
53309;SDS011;39197;53.200;5.792;2023-06-26T05:38:34;13.65;;;2.60;;
53309;SDS011;39197;53.200;5.792;2023-06-26T05:41:00;12.80;;;3.40;;
53309;SDS011;39197;53.200;5.792;2023-06-26T05:43:26;11.52;;;2.72;;
53309;SDS011;39197;53.200;5.792;2023-06-26T05:45:52;12.63;;;3.00;;
53309;SDS011;39197;53.200;5.792;2023-06-26T05:48:17;12.15;;;2.35;;
53309;SDS011;39197;53.200;5.792;2023-06-26T05:50:43;12.27;;;2.70;;
53309;SDS011;39197;53.200;5.792;2023-06-26T05:53:10;9.32;;;2.60;;
53309;SDS011;39197;53.200;5.792;2023-06-26T05:55:36;11.15;;;2.78;;
53309;SDS011;39197;53.200;5.792;2023-06-26T05:58:02;16.50;;;2.60;;
53309;SDS011;39197;53.200;5.792;2023-06-26T06:00:28;13.75;;;3.20;;
53309;SDS011;39197;53.200;5.792;2023-06-26T06:02:54;10.05;;;2.25;;
53309;SDS011;39197;53.200;5.792;2023-06-26T06:05:20;12.00;;;2.70;;
53309;SDS011;39197;53.200;5.792;2023-06-26T06:07:49;12.30;;;2.63;;
53309;SDS011;39197;53.200;5.792;2023-06-26T06:10:15;9.77;;;2.75;;
53309;SDS011;39197;53.200;5.792;2023-06-26T06:12:41;9.48;;;2.13;;
53309;SDS011;39197;53.200;5.792;2023-06-26T06:15:07;10.27;;;2.17;;
53309;SDS011;39197;53.200;5.792;2023-06-26T06:17:33;11.77;;;2.40;;
53309;SDS011;39197;53.200;5.792;2023-06-26T06:19:58;10.85;;;2.35;;
53309;SDS011;39197;53.200;5.792;2023-06-26T06:22:24;11.85;;;2.25;;
53309;SDS011;39197;53.200;5.792;2023-06-26T06:24:50;9.85;;;2.10;;
53309;SDS011;39197;53.200;5.792;2023-06-26T06:27:16;7.80;;;1.55;;
53309;SDS011;39197;53.200;5.792;2023-06-26T06:29:41;12.65;;;2.53;;
53309;SDS011;39197;53.200;5.792;2023-06-26T06:32:07;10.52;;;2.85;;
53309;SDS011;39197;53.200;5.792;2023-06-26T06:34:33;8.07;;;1.70;;
53309;SDS011;39197;53.200;5.792;2023-06-26T06:36:59;8.27;;;1.58;;
53309;SDS011;39197;53.200;5.792;2023-06-26T06:39:25;9.27;;;1.60;;
53309;SDS011;39197;53.200;5.792;2023-06-26T06:41:51;7.15;;;1.77;;
53309;SDS011;39197;53.200;5.792;2023-06-26T06:44:16;6.85;;;1.90;;
53309;SDS011;39197;53.200;5.792;2023-06-26T06:46:42;5.57;;;1.20;;
53309;SDS011;39197;53.200;5.792;2023-06-26T06:49:08;4.93;;;1.23;;
53309;SDS011;39197;53.200;5.792;2023-06-26T06:51:33;5.07;;;1.05;;
53309;SDS011;39197;53.200;5.792;2023-06-26T06:53:59;3.97;;;2.08;;
53309;SDS011;39197;53.200;5.792;2023-06-26T06:56:25;6.57;;;1.30;;
53309;SDS011;39197;53.200;5.792;2023-06-26T06:58:51;6.97;;;1.50;;
53309;SDS011;39197;53.200;5.792;2023-06-26T07:01:17;7.15;;;1.17;;
53309;SDS011;39197;53.200;5.792;2023-06-26T07:03:42;8.45;;;1.20;;
53309;SDS011;39197;53.200;5.792;2023-06-26T07:06:08;6.55;;;1.70;;
53309;SDS011;39197;53.200;5.792;2023-06-26T07:08:33;9.18;;;1.60;;
53309;SDS011;39197;53.200;5.792;2023-06-26T07:11:00;10.95;;;1.88;;
53309;SDS011;39197;53.200;5.792;2023-06-26T07:13:26;5.68;;;1.92;;
53309;SDS011;39197;53.200;5.792;2023-06-26T07:15:52;4.15;;;1.38;;
53309;SDS011;39197;53.200;5.792;2023-06-26T07:18:17;6.38;;;1.90;;
53309;SDS011;39197;53.200;5.792;2023-06-26T07:20:43;6.93;;;1.33;;
53309;SDS011;39197;53.200;5.792;2023-06-26T07:23:09;5.90;;;1.60;;
53309;SDS011;39197;53.200;5.792;2023-06-26T07:25:35;5.40;;;1.60;;
53309;SDS011;39197;53.200;5.792;2023-06-26T07:30:28;9.00;;;2.00;;
53309;SDS011;39197;53.200;5.792;2023-06-26T07:32:53;6.38;;;2.03;;
53309;SDS011;39197;53.200;5.792;2023-06-26T07:35:19;6.82;;;2.15;;
53309;SDS011;39197;53.200;5.792;2023-06-26T07:37:45;8.30;;;1.88;;
53309;SDS011;39197;53.200;5.792;2023-06-26T07:40:10;8.15;;;2.13;;
53309;SDS011;39197;53.200;5.792;2023-06-26T07:42:36;6.68;;;1.75;;
53309;SDS011;39197;53.200;5.792;2023-06-26T07:45:02;4.35;;;1.50;;
53309;SDS011;39197;53.200;5.792;2023-06-26T07:47:34;6.90;;;1.48;;
53309;SDS011;39197;53.200;5.792;2023-06-26T07:50:00;4.85;;;1.70;;
53309;SDS011;39197;53.200;5.792;2023-06-26T07:52:26;8.05;;;1.60;;
53309;SDS011;39197;53.200;5.792;2023-06-26T07:54:52;6.68;;;1.92;;
53309;SDS011;39197;53.200;5.792;2023-06-26T07:57:17;6.90;;;2.10;;
53309;SDS011;39197;53.200;5.792;2023-06-26T07:59:43;8.60;;;1.98;;
53309;SDS011;39197;53.200;5.792;2023-06-26T08:02:09;5.18;;;1.10;;
53309;SDS011;39197;53.200;5.792;2023-06-26T08:04:34;8.35;;;2.00;;
53309;SDS011;39197;53.200;5.792;2023-06-26T08:07:00;7.35;;;1.85;;
53309;SDS011;39197;53.200;5.792;2023-06-26T08:09:27;5.00;;;1.77;;
53309;SDS011;39197;53.200;5.792;2023-06-26T08:11:54;6.47;;;1.80;;
53309;SDS011;39197;53.200;5.792;2023-06-26T08:14:20;6.40;;;2.00;;
53309;SDS011;39197;53.200;5.792;2023-06-26T08:16:46;7.45;;;1.60;;
53309;SDS011;39197;53.200;5.792;2023-06-26T08:19:12;8.40;;;1.83;;
53309;SDS011;39197;53.200;5.792;2023-06-26T08:21:39;8.63;;;1.45;;
53309;SDS011;39197;53.200;5.792;2023-06-26T08:24:05;8.07;;;2.13;;
53309;SDS011;39197;53.200;5.792;2023-06-26T08:26:31;8.93;;;2.03;;
53309;SDS011;39197;53.200;5.792;2023-06-26T08:28:56;8.50;;;2.65;;
53309;SDS011;39197;53.200;5.792;2023-06-26T08:31:22;9.70;;;3.08;;
53309;SDS011;39197;53.200;5.792;2023-06-26T08:33:48;6.68;;;2.25;;
53309;SDS011;39197;53.200;5.792;2023-06-26T08:36:14;6.55;;;2.67;;
53309;SDS011;39197;53.200;5.792;2023-06-26T08:38:39;8.48;;;2.85;;
53309;SDS011;39197;53.200;5.792;2023-06-26T08:41:05;10.70;;;2.80;;
53309;SDS011;39197;53.200;5.792;2023-06-26T08:43:31;5.30;;;2.10;;
53309;SDS011;39197;53.200;5.792;2023-06-26T08:45:58;6.45;;;2.75;;
53309;SDS011;39197;53.200;5.792;2023-06-26T08:48:24;7.00;;;2.30;;
53309;SDS011;39197;53.200;5.792;2023-06-26T08:50:52;10.15;;;2.22;;
53309;SDS011;39197;53.200;5.792;2023-06-26T08:55:53;9.07;;;3.03;;
53309;SDS011;39197;53.200;5.792;2023-06-26T08:58:22;7.35;;;2.08;;
53309;SDS011;39197;53.200;5.792;2023-06-26T09:00:48;8.35;;;2.78;;
53309;SDS011;39197;53.200;5.792;2023-06-26T09:03:14;6.72;;;1.80;;
53309;SDS011;39197;53.200;5.792;2023-06-26T09:05:40;4.90;;;1.60;;
53309;SDS011;39197;53.200;5.792;2023-06-26T09:08:06;5.43;;;2.00;;
53309;SDS011;39197;53.200;5.792;2023-06-26T09:10:32;7.60;;;2.17;;
53309;SDS011;39197;53.200;5.792;2023-06-26T09:12:58;7.50;;;1.90;;
53309;SDS011;39197;53.200;5.792;2023-06-26T09:15:26;5.63;;;1.80;;
53309;SDS011;39197;53.200;5.792;2023-06-26T09:17:55;3.92;;;1.88;;
53309;SDS011;39197;53.200;5.792;2023-06-26T09:20:27;6.68;;;2.08;;
53309;SDS011;39197;53.200;5.792;2023-06-26T09:22:55;4.55;;;2.00;;
53309;SDS011;39197;53.200;5.792;2023-06-26T09:25:21;3.80;;;1.85;;
53309;SDS011;39197;53.200;5.792;2023-06-26T09:27:48;7.05;;;1.92;;
53309;SDS011;39197;53.200;5.792;2023-06-26T09:30:16;5.78;;;2.22;;
53309;SDS011;39197;53.200;5.792;2023-06-26T09:32:43;6.28;;;2.30;;
53309;SDS011;39197;53.200;5.792;2023-06-26T09:35:09;5.22;;;2.03;;
53309;SDS011;39197;53.200;5.792;2023-06-26T09:37:35;8.75;;;1.92;;
53309;SDS011;39197;53.200;5.792;2023-06-26T09:40:01;8.60;;;2.58;;
53309;SDS011;39197;53.200;5.792;2023-06-26T09:42:28;6.72;;;2.53;;
53309;SDS011;39197;53.200;5.792;2023-06-26T09:44:54;7.25;;;1.50;;
53309;SDS011;39197;53.200;5.792;2023-06-26T09:47:20;6.40;;;2.08;;
53309;SDS011;39197;53.200;5.792;2023-06-26T09:49:46;8.98;;;1.80;;
53309;SDS011;39197;53.200;5.792;2023-06-26T09:52:16;14.63;;;2.33;;
53309;SDS011;39197;53.200;5.792;2023-06-26T09:54:43;4.47;;;1.53;;
53309;SDS011;39197;53.200;5.792;2023-06-26T09:57:15;6.68;;;1.33;;
53309;SDS011;39197;53.200;5.792;2023-06-26T09:59:41;6.78;;;1.45;;
53309;SDS011;39197;53.200;5.792;2023-06-26T10:02:09;4.15;;;1.38;;
53309;SDS011;39197;53.200;5.792;2023-06-26T10:04:36;5.63;;;1.27;;
53309;SDS011;39197;53.200;5.792;2023-06-26T10:07:04;8.35;;;1.80;;
53309;SDS011;39197;53.200;5.792;2023-06-26T10:09:31;5.40;;;1.60;;
53309;SDS011;39197;53.200;5.792;2023-06-26T10:12:01;7.13;;;1.40;;
53309;SDS011;39197;53.200;5.792;2023-06-26T10:14:31;5.28;;;1.15;;
53309;SDS011;39197;53.200;5.792;2023-06-26T10:17:01;9.82;;;2.10;;
53309;SDS011;39197;53.200;5.792;2023-06-26T10:19:31;6.80;;;2.33;;
53309;SDS011;39197;53.200;5.792;2023-06-26T10:21:58;16.70;;;2.45;;
53309;SDS011;39197;53.200;5.792;2023-06-26T10:24:27;8.80;;;1.40;;
53309;SDS011;39197;53.200;5.792;2023-06-26T10:27:02;10.90;;;2.00;;
53309;SDS011;39197;53.200;5.792;2023-06-26T10:29:33;7.45;;;1.40;;
53309;SDS011;39197;53.200;5.792;2023-06-26T10:32:02;7.25;;;1.55;;
53309;SDS011;39197;53.200;5.792;2023-06-26T10:34:29;10.45;;;1.50;;
53309;SDS011;39197;53.200;5.792;2023-06-26T10:36:58;6.50;;;1.45;;
53309;SDS011;39197;53.200;5.792;2023-06-26T10:42:14;5.25;;;0.90;;
53309;SDS011;39197;53.200;5.792;2023-06-26T10:44:45;9.65;;;2.25;;
53309;SDS011;39197;53.200;5.792;2023-06-26T10:47:33;9.40;;;1.42;;
53309;SDS011;39197;53.200;5.792;2023-06-26T10:55:37;11.68;;;1.20;;
53309;SDS011;39197;53.200;5.792;2023-06-26T10:58:16;6.93;;;1.60;;
53309;SDS011;39197;53.200;5.792;2023-06-26T11:01:00;5.53;;;1.10;;
53309;SDS011;39197;53.200;5.792;2023-06-26T11:03:44;7.70;;;1.70;;
53309;SDS011;39197;53.200;5.792;2023-06-26T11:11:19;8.18;;;2.15;;
53309;SDS011;39197;53.200;5.792;2023-06-26T11:13:46;5.82;;;1.17;;
53309;SDS011;39197;53.200;5.792;2023-06-26T11:16:13;9.10;;;1.90;;
53309;SDS011;39197;53.200;5.792;2023-06-26T11:18:40;9.73;;;1.70;;
53309;SDS011;39197;53.200;5.792;2023-06-26T11:21:06;8.65;;;1.70;;
53309;SDS011;39197;53.200;5.792;2023-06-26T11:23:36;6.97;;;1.55;;
53309;SDS011;39197;53.200;5.792;2023-06-26T11:28:46;6.68;;;1.35;;
53309;SDS011;39197;53.200;5.792;2023-06-26T11:31:25;10.05;;;1.30;;
53309;SDS011;39197;53.200;5.792;2023-06-26T11:33:55;6.93;;;1.52;;
53309;SDS011;39197;53.200;5.792;2023-06-26T11:36:28;13.63;;;2.15;;
53309;SDS011;39197;53.200;5.792;2023-06-26T11:38:55;9.43;;;1.90;;
53309;SDS011;39197;53.200;5.792;2023-06-26T11:41:23;7.13;;;1.77;;
53309;SDS011;39197;53.200;5.792;2023-06-26T11:43:53;8.50;;;2.00;;
53309;SDS011;39197;53.200;5.792;2023-06-26T11:46:19;8.32;;;1.73;;
53309;SDS011;39197;53.200;5.792;2023-06-26T11:48:46;12.65;;;1.55;;
53309;SDS011;39197;53.200;5.792;2023-06-26T11:51:12;7.28;;;1.17;;
53309;SDS011;39197;53.200;5.792;2023-06-26T11:53:40;9.43;;;2.15;;
53309;SDS011;39197;53.200;5.792;2023-06-26T11:56:07;7.25;;;1.55;;
53309;SDS011;39197;53.200;5.792;2023-06-26T11:58:54;9.85;;;2.15;;
53309;SDS011;39197;53.200;5.792;2023-06-26T12:01:25;9.55;;;1.60;;
53309;SDS011;39197;53.200;5.792;2023-06-26T12:04:05;8.30;;;2.13;;
53309;SDS011;39197;53.200;5.792;2023-06-26T12:06:36;8.05;;;1.70;;
53309;SDS011;39197;53.200;5.792;2023-06-26T12:09:09;7.97;;;1.52;;
53309;SDS011;39197;53.200;5.792;2023-06-26T12:11:46;11.90;;;1.70;;
53309;SDS011;39197;53.200;5.792;2023-06-26T12:14:13;7.20;;;1.25;;
53309;SDS011;39197;53.200;5.792;2023-06-26T12:16:40;7.25;;;1.77;;
53309;SDS011;39197;53.200;5.792;2023-06-26T12:19:06;5.32;;;1.08;;
53309;SDS011;39197;53.200;5.792;2023-06-26T12:24:01;5.70;;;1.20;;
53309;SDS011;39197;53.200;5.792;2023-06-26T12:26:28;7.68;;;1.70;;
53309;SDS011;39197;53.200;5.792;2023-06-26T12:29:01;11.57;;;2.25;;
53309;SDS011;39197;53.200;5.792;2023-06-26T12:31:49;6.55;;;1.70;;
53309;SDS011;39197;53.200;5.792;2023-06-26T12:34:17;7.05;;;1.05;;
53309;SDS011;39197;53.200;5.792;2023-06-26T12:36:51;6.47;;;1.35;;
53309;SDS011;39197;53.200;5.792;2023-06-26T12:39:18;8.43;;;1.40;;
53309;SDS011;39197;53.200;5.792;2023-06-26T12:41:51;6.70;;;1.35;;
53309;SDS011;39197;53.200;5.792;2023-06-26T12:44:19;11.05;;;1.45;;
53309;SDS011;39197;53.200;5.792;2023-06-26T12:46:46;11.93;;;2.13;;
53309;SDS011;39197;53.200;5.792;2023-06-26T12:49:13;9.20;;;2.30;;
53309;SDS011;39197;53.200;5.792;2023-06-26T12:51:39;8.88;;;2.47;;
53309;SDS011;39197;53.200;5.792;2023-06-26T12:54:05;10.15;;;1.83;;
53309;SDS011;39197;53.200;5.792;2023-06-26T12:56:31;6.82;;;1.02;;
53309;SDS011;39197;53.200;5.792;2023-06-26T12:58:56;9.10;;;1.40;;
53309;SDS011;39197;53.200;5.792;2023-06-26T13:01:22;8.73;;;1.65;;
53309;SDS011;39197;53.200;5.792;2023-06-26T13:03:49;8.80;;;1.30;;
53309;SDS011;39197;53.200;5.792;2023-06-26T13:06:18;5.82;;;0.90;;
53309;SDS011;39197;53.200;5.792;2023-06-26T13:08:44;5.80;;;1.55;;
53309;SDS011;39197;53.200;5.792;2023-06-26T13:11:09;8.55;;;1.42;;
53309;SDS011;39197;53.200;5.792;2023-06-26T13:13:35;5.38;;;1.02;;
53309;SDS011;39197;53.200;5.792;2023-06-26T13:16:01;7.90;;;1.70;;
53309;SDS011;39197;53.200;5.792;2023-06-26T13:18:27;8.18;;;2.10;;
53309;SDS011;39197;53.200;5.792;2023-06-26T13:20:53;10.85;;;2.05;;
53309;SDS011;39197;53.200;5.792;2023-06-26T13:23:18;11.63;;;2.75;;
53309;SDS011;39197;53.200;5.792;2023-06-26T13:25:44;11.02;;;1.50;;
53309;SDS011;39197;53.200;5.792;2023-06-26T13:30:45;16.52;;;4.97;;
53309;SDS011;39197;53.200;5.792;2023-06-26T13:33:11;7.78;;;1.30;;
53309;SDS011;39197;53.200;5.792;2023-06-26T13:35:36;10.38;;;1.30;;
53309;SDS011;39197;53.200;5.792;2023-06-26T13:38:02;6.53;;;1.45;;
53309;SDS011;39197;53.200;5.792;2023-06-26T13:40:28;9.20;;;1.52;;
53309;SDS011;39197;53.200;5.792;2023-06-26T13:42:53;7.68;;;1.50;;
53309;SDS011;39197;53.200;5.792;2023-06-26T13:45:19;8.95;;;2.40;;
53309;SDS011;39197;53.200;5.792;2023-06-26T13:47:44;8.65;;;1.50;;
53309;SDS011;39197;53.200;5.792;2023-06-26T13:50:11;4.70;;;0.75;;
53309;SDS011;39197;53.200;5.792;2023-06-26T13:52:37;11.30;;;1.83;;
53309;SDS011;39197;53.200;5.792;2023-06-26T13:55:03;6.15;;;1.35;;
53309;SDS011;39197;53.200;5.792;2023-06-26T13:57:31;9.18;;;1.33;;
53309;SDS011;39197;53.200;5.792;2023-06-26T13:59:57;8.35;;;1.25;;
53309;SDS011;39197;53.200;5.792;2023-06-26T14:02:22;6.50;;;1.50;;
53309;SDS011;39197;53.200;5.792;2023-06-26T14:04:48;10.60;;;3.75;;
53309;SDS011;39197;53.200;5.792;2023-06-26T14:07:14;6.20;;;1.15;;
53309;SDS011;39197;53.200;5.792;2023-06-26T14:09:40;8.77;;;1.40;;
53309;SDS011;39197;53.200;5.792;2023-06-26T14:12:06;10.00;;;3.00;;
53309;SDS011;39197;53.200;5.792;2023-06-26T14:14:32;8.45;;;2.53;;
53309;SDS011;39197;53.200;5.792;2023-06-26T14:16:58;7.82;;;1.45;;
53309;SDS011;39197;53.200;5.792;2023-06-26T14:19:24;8.02;;;1.70;;
53309;SDS011;39197;53.200;5.792;2023-06-26T14:21:51;10.68;;;1.75;;
53309;SDS011;39197;53.200;5.792;2023-06-26T14:24:17;5.55;;;0.95;;
53309;SDS011;39197;53.200;5.792;2023-06-26T14:26:43;7.70;;;2.05;;
53309;SDS011;39197;53.200;5.792;2023-06-26T14:29:08;7.07;;;1.42;;
53309;SDS011;39197;53.200;5.792;2023-06-26T14:31:34;6.95;;;1.58;;
53309;SDS011;39197;53.200;5.792;2023-06-26T14:34:00;7.75;;;1.52;;
53309;SDS011;39197;53.200;5.792;2023-06-26T14:36:27;6.70;;;1.25;;
53309;SDS011;39197;53.200;5.792;2023-06-26T14:38:56;6.95;;;1.70;;
53309;SDS011;39197;53.200;5.792;2023-06-26T14:41:21;10.13;;;1.63;;
53309;SDS011;39197;53.200;5.792;2023-06-26T14:43:47;9.88;;;1.30;;
53309;SDS011;39197;53.200;5.792;2023-06-26T14:46:13;4.85;;;1.40;;
53309;SDS011;39197;53.200;5.792;2023-06-26T14:48:39;5.45;;;1.73;;
53309;SDS011;39197;53.200;5.792;2023-06-26T14:51:04;5.38;;;1.25;;
53309;SDS011;39197;53.200;5.792;2023-06-26T14:53:30;8.95;;;3.20;;
53309;SDS011;39197;53.200;5.792;2023-06-26T14:55:56;5.63;;;1.20;;
53309;SDS011;39197;53.200;5.792;2023-06-26T14:58:22;9.77;;;1.95;;
53309;SDS011;39197;53.200;5.792;2023-06-26T15:00:47;7.47;;;1.92;;
53309;SDS011;39197;53.200;5.792;2023-06-26T15:03:13;7.45;;;1.20;;
53309;SDS011;39197;53.200;5.792;2023-06-26T15:05:39;8.70;;;1.85;;
53309;SDS011;39197;53.200;5.792;2023-06-26T15:08:05;6.82;;;1.67;;
53309;SDS011;39197;53.200;5.792;2023-06-26T15:10:30;6.85;;;1.10;;
53309;SDS011;39197;53.200;5.792;2023-06-26T15:12:56;6.43;;;1.10;;